Time;durP1;ratioP1;P1;durP2;ratioP2;P2;SDS_P1;SDS_P2;PMS_P1;PMS_P2;Temp;Humidity;BMP_temperature;BMP_pressure;BME280_temperature;BME280_humidity;BME280_pressure;Samples;Min_cycle;Max_cycle;Signal;HPM_P1;HPM_P2
2022/03/17 00:00:22;;;;;;;12.85;8.82;;;;;;;3.95;86.24;94008.97;5092165;28;20034;-40
2022/03/17 00:02:47;;;;;;;9.75;6.95;;;;;;;3.82;86.39;94011.41;5092096;28;20024;-40
2022/03/17 00:05:13;;;;;;;7.80;5.70;;;;;;;3.68;86.87;94010.34;5092100;28;20027;-41
2022/03/17 00:07:40;;;;;;;5.60;4.90;;;;;;;3.71;86.79;94008.63;5091906;28;20024;-41
2022/03/17 00:10:08;;;;;;;5.90;4.22;;;;;;;3.62;86.89;94006.84;5095266;28;20052;-41
2022/03/17 00:12:33;;;;;;;5.47;4.78;;;;;;;3.46;87.53;93996.63;5112275;28;20030;-40
2022/03/17 00:14:59;;;;;;;5.68;4.93;;;;;;;3.51;87.97;94015.00;5112534;27;20103;-41
2022/03/17 00:17:26;;;;;;;6.72;4.50;;;;;;;3.45;87.67;94018.94;5112588;28;20031;-40
2022/03/17 00:19:52;;;;;;;6.07;4.60;;;;;;;3.42;88.17;94019.91;5112151;28;20035;-41
2022/03/17 00:22:18;;;;;;;7.60;4.93;;;;;;;3.34;88.54;94022.34;5112166;28;20031;-40
2022/03/17 00:24:43;;;;;;;5.38;4.40;;;;;;;3.35;88.60;94023.84;5112384;28;20428;-41
2022/03/17 00:27:09;;;;;;;5.75;3.45;;;;;;;3.40;87.55;94028.56;5110776;28;20511;-40
2022/03/17 00:29:36;;;;;;;5.63;4.07;;;;;;;3.37;87.90;94017.91;5112305;28;20103;-40
2022/03/17 00:32:03;;;;;;;5.97;3.58;;;;;;;3.23;88.22;94021.56;5111951;28;20039;-41
2022/03/17 00:34:28;;;;;;;4.88;3.58;;;;;;;3.27;88.20;94014.59;5111815;28;20019;-40
2022/03/17 00:36:54;;;;;;;4.07;2.90;;;;;;;3.21;87.64;94018.53;5112177;28;20023;-40
2022/03/17 00:39:20;;;;;;;10.23;5.85;;;;;;;3.19;87.32;94018.28;5111820;28;20076;-40
2022/03/17 00:41:46;;;;;;;17.13;9.40;;;;;;;3.21;86.76;94030.22;5094157;28;20489;-40
2022/03/17 00:44:11;;;;;;;16.35;7.93;;;;;;;3.22;86.61;94028.22;5091333;28;20028;-40
2022/03/17 00:46:37;;;;;;;9.07;5.68;;;;;;;3.19;86.65;94029.19;5091556;28;20031;-40
2022/03/17 00:49:03;;;;;;;20.40;12.20;;;;;;;3.09;86.40;94025.94;5091489;28;20108;-40
2022/03/17 00:51:29;;;;;;;12.07;7.93;;;;;;;3.08;86.88;94014.25;5090769;28;20528;-40
2022/03/17 00:53:54;;;;;;;8.95;5.72;;;;;;;3.02;87.54;94027.13;5091135;28;20016;-40
2022/03/17 00:56:20;;;;;;;10.43;7.22;;;;;;;3.03;87.13;94033.34;5106563;28;20508;-40
2022/03/17 00:58:46;;;;;;;8.40;5.30;;;;;;;2.97;87.20;94018.88;5111373;28;20050;-40
2022/03/17 01:01:13;;;;;;;20.20;10.85;;;;;;;2.99;87.43;94036.25;5111298;28;20028;-40
2022/03/17 01:03:39;;;;;;;16.67;9.35;;;;;;;2.99;87.10;94039.00;5111335;28;20024;-40
2022/03/17 01:06:05;;;;;;;9.75;5.80;;;;;;;3.02;86.69;94027.13;5111242;28;20106;-40
2022/03/17 01:08:30;;;;;;;10.02;8.10;;;;;;;3.02;86.31;94027.13;5111193;28;20118;-40
2022/03/17 01:10:55;;;;;;;5.78;4.85;;;;;;;2.89;86.06;94036.94;5111106;28;20035;-39
2022/03/17 01:13:22;;;;;;;7.90;5.15;;;;;;;2.86;85.93;94022.28;5111390;28;20039;-39
2022/03/17 01:15:47;;;;;;;6.25;5.25;;;;;;;2.94;85.61;94037.00;5111132;28;20424;-39
2022/03/17 01:18:12;;;;;;;6.18;4.72;;;;;;;2.94;85.14;94031.53;5109427;28;20030;-39
2022/03/17 01:20:38;;;;;;;5.07;4.30;;;;;;;2.95;85.09;94035.75;5090985;28;20519;-40
2022/03/17 01:23:04;;;;;;;5.57;4.82;;;;;;;3.01;85.26;94035.81;5090637;28;20467;-40
2022/03/17 01:25:31;;;;;;;5.65;4.85;;;;;;;3.04;84.78;94040.28;5090899;28;20028;-40
2022/03/17 01:27:57;;;;;;;7.90;5.57;;;;;;;3.03;83.95;94041.53;5090506;28;20508;-40
2022/03/17 01:30:22;;;;;;;6.15;5.20;;;;;;;2.60;85.47;94018.84;5090882;28;20020;-40
2022/03/17 01:32:48;;;;;;;7.15;6.43;;;;;;;2.78;85.75;94039.56;5090616;28;20494;-39
2022/03/17 01:35:13;;;;;;;7.10;5.80;;;;;;;2.77;85.99;94022.47;5090825;28;20473;-40
2022/03/17 01:37:39;;;;;;;9.13;7.60;;;;;;;2.79;85.73;94009.13;5090696;28;20127;-40
2022/03/17 01:40:05;;;;;;;9.35;7.75;;;;;;;2.78;86.20;94029.41;5090404;28;20027;-40
2022/03/17 01:42:32;;;;;;;10.23;8.52;;;;;;;2.85;85.94;94039.91;5090398;28;20024;-40
2022/03/17 01:44:57;;;;;;;10.25;8.40;;;;;;;2.80;85.97;94034.38;5090382;28;20040;-40
2022/03/17 01:47:29;;;;;;;10.05;7.95;;;;;;;2.86;86.25;94035.16;5090617;28;20122;-40
2022/03/17 01:50:13;;;;;;;8.70;7.45;;;;;;;2.84;85.68;94043.09;5090359;28;20649;-40
2022/03/17 01:52:39;;;;;;;9.77;7.30;;;;;;;2.81;85.80;94041.34;5090582;28;20055;-39
2022/03/17 01:55:06;;;;;;;10.70;8.38;;;;;;;2.81;85.80;94042.09;5095037;28;20595;-40
2022/03/17 01:57:32;;;;;;;11.63;9.38;;;;;;;2.84;84.99;94043.84;5110623;28;20043;-40
2022/03/17 01:59:58;;;;;;;12.18;9.70;;;;;;;2.81;85.10;94053.00;5110488;28;20507;-39
2022/03/17 02:02:25;;;;;;;11.75;9.48;;;;;;;2.82;85.73;94045.56;5110637;28;20072;-39
2022/03/17 02:04:51;;;;;;;10.27;8.75;;;;;;;2.85;85.41;94045.34;5114370;28;20036;-39
2022/03/17 02:07:17;;;;;;;11.93;9.43;;;;;;;2.86;85.04;94051.53;5114637;28;20546;-39
2022/03/17 02:09:44;;;;;;;12.20;9.32;;;;;;;2.81;85.40;94044.81;5114717;28;20024;-39
2022/03/17 02:14:55;;;;;;;12.48;9.18;;;;;;;2.88;85.17;94058.00;5099964;28;20063;-39
2022/03/17 02:17:22;;;;;;;12.63;9.45;;;;;;;2.72;84.55;94049.69;5114525;28;20031;-40
2022/03/17 02:19:49;;;;;;;15.70;11.20;;;;;;;2.63;85.38;94053.34;5114585;28;20059;-39
2022/03/17 02:22:18;;;;;;;15.70;10.90;;;;;;;2.59;85.92;94049.34;5114572;28;20115;-39
2022/03/17 02:27:31;;;;;;;18.20;13.45;;;;;;;2.50;86.57;94050.25;5114608;28;20041;-39
2022/03/17 02:29:56;;;;;;;19.38;12.38;;;;;;;2.38;86.82;94045.19;5114382;28;20080;-39
2022/03/17 02:32:22;;;;;;;20.67;13.48;;;;;;;2.41;87.23;94055.88;5114319;28;20031;-40
2022/03/17 02:34:47;;;;;;;18.77;14.63;;;;;;;2.28;86.81;94036.41;5114473;28;20061;-39
2022/03/17 02:37:14;;;;;;;18.17;12.48;;;;;;;2.41;87.37;94055.88;5114508;28;20051;-40
2022/03/17 02:39:40;;;;;;;20.10;12.30;;;;;;;2.32;87.41;94063.47;5114394;28;20102;-39
2022/03/17 02:42:05;;;;;;;16.88;11.07;;;;;;;2.23;87.48;94048.75;5113743;28;20097;-39
2022/03/17 02:44:32;;;;;;;20.30;12.35;;;;;;;2.28;87.75;94060.94;5114351;28;20030;-39
2022/03/17 02:46:58;;;;;;;19.73;12.68;;;;;;;2.16;88.56;94073.72;5113874;28;20488;-39
2022/03/17 02:49:23;;;;;;;17.83;12.35;;;;;;;2.18;88.18;94071.25;5113963;28;20081;-39
2022/03/17 02:51:49;;;;;;;15.77;10.88;;;;;;;2.18;88.99;94070.50;5113898;28;20133;-39
2022/03/17 02:54:14;;;;;;;18.20;10.50;;;;;;;2.18;88.48;94073.22;5113873;28;20274;-39
2022/03/17 02:56:40;;;;;;;14.70;8.98;;;;;;;2.16;87.42;94076.44;5095258;28;20048;-39
2022/03/17 02:59:05;;;;;;;16.33;10.35;;;;;;;2.19;87.93;94078.19;5093735;28;20032;-39
2022/03/17 03:01:31;;;;;;;17.58;11.48;;;;;;;2.26;87.86;94072.31;5093273;28;20024;-39
2022/03/17 03:03:56;;;;;;;19.92;12.50;;;;;;;2.24;87.84;94080.22;5093630;28;20028;-39
2022/03/17 03:06:22;;;;;;;21.77;12.48;;;;;;;2.27;87.40;94083.97;5093233;28;20062;-39
2022/03/17 03:08:47;;;;;;;18.52;12.35;;;;;;;2.26;87.21;94083.22;5093100;28;20024;-39
2022/03/17 03:11:14;;;;;;;20.30;11.93;;;;;;;2.32;87.09;94079.81;5105624;28;20027;-40
2022/03/17 03:13:39;;;;;;;18.80;12.75;;;;;;;2.33;87.24;94090.22;5113753;28;20024;-39
2022/03/17 03:16:05;;;;;;;25.73;12.25;;;;;;;2.29;87.65;94092.41;5113037;28;20553;-40
2022/03/17 03:18:30;;;;;;;21.05;12.43;;;;;;;2.27;87.23;94095.59;5113644;28;20550;-39
2022/03/17 03:20:56;;;;;;;21.42;12.20;;;;;;;2.27;87.44;94103.78;5113683;28;20031;-39
2022/03/17 03:23:21;;;;;;;16.63;10.32;;;;;;;2.33;86.76;94108.53;5113331;28;20122;-39
2022/03/17 03:25:47;;;;;;;21.38;11.02;;;;;;;2.35;86.76;94108.81;5113207;28;20035;-40
2022/03/17 03:28:12;;;;;;;14.88;10.63;;;;;;;2.35;87.49;94116.97;5113424;28;20072;-39
2022/03/17 03:30:38;;;;;;;15.75;10.57;;;;;;;2.46;87.14;94120.59;5113156;28;20511;-39
2022/03/17 03:33:07;;;;;;;17.48;10.07;;;;;;;2.42;86.31;94113.84;5113125;28;20027;-39
2022/03/17 03:38:19;;;;;;;15.27;10.15;;;;;;;2.49;85.61;94113.44;5113317;28;20515;-39
2022/03/17 03:40:45;;;;;;;17.90;11.02;;;;;;;2.51;84.66;94114.44;5112903;28;20030;-41
2022/03/17 03:43:10;;;;;;;21.58;11.23;;;;;;;2.44;85.09;94114.88;5113221;28;20502;-41
2022/03/17 03:45:36;;;;;;;18.33;11.35;;;;;;;2.56;84.95;94124.63;5113179;28;20088;-41
2022/03/17 03:48:01;;;;;;;16.60;10.82;;;;;;;2.53;85.14;94130.31;5112973;28;20028;-40
2022/03/17 03:50:28;;;;;;;15.00;9.60;;;;;;;2.63;84.65;94135.13;5113136;28;20027;-40
2022/03/17 03:52:53;;;;;;;15.07;9.85;;;;;;;2.71;84.34;94138.16;5112702;28;20050;-41
2022/03/17 03:55:19;;;;;;;13.52;9.15;;;;;;;2.59;84.01;94126.41;5104841;28;20489;-40
2022/03/17 03:57:46;;;;;;;14.18;9.73;;;;;;;2.65;84.32;94135.38;5092132;28;20040;-40
2022/03/17 04:02:43;;;;;;;19.67;11.25;;;;;;;2.60;84.91;94136.06;5092575;28;20028;-41
2022/03/17 04:05:10;;;;;;;23.20;12.38;;;;;;;2.49;85.81;94138.69;5092067;28;20031;-40
2022/03/17 04:07:36;;;;;;;20.85;12.27;;;;;;;2.57;86.22;94145.22;5099196;28;20074;-40
2022/03/17 04:10:01;;;;;;;19.73;12.00;;;;;;;2.47;85.81;94132.97;5109973;28;20472;-41
2022/03/17 04:12:26;;;;;;;19.95;12.30;;;;;;;2.39;86.41;94133.88;5092022;28;20047;-40
2022/03/17 04:14:52;;;;;;;21.15;11.65;;;;;;;2.33;87.39;94136.53;5092024;28;20032;-41
2022/03/17 04:17:17;;;;;;;17.52;10.20;;;;;;;2.28;87.35;94140.69;5091872;28;20016;-40
2022/03/17 04:19:43;;;;;;;21.02;12.75;;;;;;;2.19;86.99;94137.34;5092141;28;20024;-40
2022/03/17 04:22:08;;;;;;;21.17;11.63;;;;;;;2.07;88.27;94141.19;5092018;28;20129;-41
2022/03/17 04:24:34;;;;;;;24.20;14.30;;;;;;;1.99;88.75;94134.66;5091790;28;20031;-40
2022/03/17 04:26:59;;;;;;;19.00;11.52;;;;;;;1.98;88.88;94154.94;5090537;28;20028;-40
2022/03/17 04:29:25;;;;;;;26.17;10.23;;;;;;;1.86;89.22;94153.31;5091990;28;20037;-40
2022/03/17 04:31:50;;;;;;;18.02;12.30;;;;;;;1.81;89.64;94167.59;5091571;28;20020;-40
2022/03/17 04:34:16;;;;;;;18.25;11.55;;;;;;;1.76;90.16;94174.44;5091978;28;20032;-40
2022/03/17 04:36:41;;;;;;;23.15;13.65;;;;;;;1.70;90.37;94173.63;5091856;28;20063;-40
2022/03/17 04:39:10;;;;;;;38.72;14.88;;;;;;;1.75;90.51;94183.84;5091506;28;20107;-40
2022/03/17 04:41:36;;;;;;;42.28;14.10;;;;;;;1.72;90.51;94184.03;5106997;28;20023;-40
2022/03/17 04:44:01;;;;;;;53.03;12.15;;;;;;;1.68;90.79;94188.94;5111687;28;20039;-40
2022/03/17 04:46:27;;;;;;;46.08;13.15;;;;;;;1.58;90.39;94199.19;5111715;28;20113;-40
2022/03/17 04:48:52;;;;;;;32.05;12.77;;;;;;;1.59;91.30;94195.25;5111584;28;20035;-40
2022/03/17 04:51:17;;;;;;;33.63;11.13;;;;;;;1.63;90.82;94206.69;5111598;28;20023;-41
2022/03/17 04:53:43;;;;;;;16.17;10.05;;;;;;;1.61;90.48;94206.41;5111536;27;20077;-40
2022/03/17 04:56:11;;;;;;;33.90;11.27;;;;;;;1.57;91.07;94208.56;5097612;28;20028;-40
2022/03/17 04:58:38;;;;;;;17.45;10.13;;;;;;;1.52;90.91;94201.06;5090986;28;20040;-40
2022/03/17 05:01:05;;;;;;;20.27;10.52;;;;;;;1.53;91.53;94203.34;5091034;28;20043;-40
2022/03/17 05:03:31;;;;;;;16.45;9.85;;;;;;;1.50;91.13;94208.94;5095166;28;20035;-40
2022/03/17 05:05:57;;;;;;;17.85;10.15;;;;;;;1.44;91.61;94206.16;5111592;28;20051;-40
2022/03/17 05:08:22;;;;;;;14.82;9.40;;;;;;;1.58;91.35;94217.50;5111156;28;20477;-40
2022/03/17 05:10:48;;;;;;;23.83;13.68;;;;;;;1.41;91.33;94207.09;5102521;28;20023;-40
2022/03/17 05:13:15;;;;;;;26.30;14.30;;;;;;;1.53;91.33;94216.94;5091162;28;20475;-40
2022/03/17 05:15:41;;;;;;;23.52;12.80;;;;;;;1.34;91.41;94207.47;5090840;28;20024;-40
2022/03/17 05:18:07;;;;;;;21.58;11.93;;;;;;;1.44;91.40;94221.72;5090794;28;20074;-40
2022/03/17 05:20:37;;;;;;;20.00;11.43;;;;;;;1.50;91.51;94228.75;5091017;28;20115;-40
2022/03/17 05:23:04;;;;;;;27.70;13.18;;;;;;;1.54;90.62;94217.66;5090973;28;20097;-40
2022/03/17 05:25:31;;;;;;;22.67;11.02;;;;;;;1.48;89.86;94217.59;5090578;28;20540;-40
2022/03/17 05:27:57;;;;;;;42.42;17.25;;;;;;;1.50;89.50;94234.19;5090850;28;20016;-40
2022/03/17 05:30:22;;;;;;;20.73;11.70;;;;;;;1.40;90.10;94218.44;5089396;28;20031;-40
2022/03/17 05:32:48;;;;;;;27.33;12.55;;;;;;;1.53;89.72;94243.41;5090826;28;20020;-40
2022/03/17 05:35:16;;;;;;;26.60;13.90;;;;;;;1.53;89.79;94248.84;5090537;28;20046;-40
2022/03/17 05:37:42;;;;;;;41.97;20.30;;;;;;;1.58;89.80;94244.72;5090174;28;20615;-40
2022/03/17 05:40:13;;;;;;;24.05;13.48;;;;;;;1.49;89.83;94246.28;5093515;28;21028;-40
2022/03/17 05:42:43;;;;;;;33.67;15.15;;;;;;;1.45;89.52;94245.00;5111052;28;20016;-40
2022/03/17 05:45:09;;;;;;;17.45;9.85;;;;;;;1.43;89.99;94245.47;5110750;28;20027;-40
2022/03/17 05:47:42;;;;;;;12.57;8.02;;;;;;;1.48;90.56;94258.41;5110906;28;20107;-40
2022/03/17 05:50:10;;;;;;;18.30;10.77;;;;;;;1.56;90.72;94258.75;5110678;28;20497;-40
2022/03/17 05:52:38;;;;;;;19.52;11.15;;;;;;;1.56;89.98;94241.72;5110683;28;20547;-40
2022/03/17 05:55:05;;;;;;;17.42;11.98;;;;;;;1.51;89.40;94238.44;5105932;28;20023;-40
2022/03/17 05:57:31;;;;;;;11.55;7.72;;;;;;;1.63;88.81;94254.91;5090099;28;20497;-40
2022/03/17 05:59:57;;;;;;;11.68;8.00;;;;;;;1.49;88.79;94267.34;5096250;28;20071;-39
2022/03/17 06:02:23;;;;;;;11.88;7.40;;;;;;;1.46;88.74;94273.69;5110630;28;20512;-40
2022/03/17 06:04:48;;;;;;;8.48;5.88;;;;;;;1.51;88.76;94281.97;5110619;28;20026;-41
2022/03/17 06:07:13;;;;;;;11.20;7.60;;;;;;;1.56;89.08;94287.97;5110770;28;20023;-40
2022/03/17 06:09:39;;;;;;;8.75;5.93;;;;;;;1.53;88.63;94290.41;5110809;28;20404;-40
2022/03/17 06:12:06;;;;;;;13.57;8.82;;;;;;;1.51;88.86;94281.22;5090721;28;20390;-40
2022/03/17 06:14:32;;;;;;;34.20;14.93;;;;;;;1.59;88.08;94290.50;5090067;28;20028;-40
2022/03/17 06:16:58;;;;;;;24.35;13.20;;;;;;;1.59;88.45;94285.06;5090422;28;20035;-41
2022/03/17 06:19:23;;;;;;;12.10;7.53;;;;;;;1.70;87.76;94295.34;5090090;28;20103;-40
2022/03/17 06:21:49;;;;;;;6.60;5.38;;;;;;;1.77;87.39;94287.56;5089191;28;20027;-40
2022/03/17 06:24:14;;;;;;;7.55;5.88;;;;;;;1.84;87.98;94289.16;5090004;28;20508;-41
2022/03/17 06:26:40;;;;;;;7.95;4.70;;;;;;;1.85;87.31;94298.81;5089092;28;20027;-40
2022/03/17 06:29:05;;;;;;;11.05;6.40;;;;;;;1.89;86.66;94300.13;5089441;28;20028;-41
2022/03/17 06:31:31;;;;;;;13.88;7.60;;;;;;;1.95;85.46;94292.78;5090207;28;20031;-40
2022/03/17 06:33:57;;;;;;;7.30;5.68;;;;;;;1.98;85.70;94302.00;5089951;28;20047;-40
2022/03/17 06:36:23;;;;;;;8.43;6.13;;;;;;;1.97;84.93;94295.06;5089864;28;20027;-41
2022/03/17 06:38:48;;;;;;;9.38;4.75;;;;;;;1.97;84.73;94300.50;5089853;28;20016;-41
2022/03/17 06:41:14;;;;;;;4.97;4.18;;;;;;;1.91;85.21;94303.13;5102261;28;20027;-40
2022/03/17 06:43:39;;;;;;;15.57;9.57;;;;;;;1.78;84.57;94299.19;5110535;28;20030;-40
2022/03/17 06:46:05;;;;;;;13.48;8.93;;;;;;;1.91;84.27;94305.09;5110194;28;20047;-41
2022/03/17 06:48:30;;;;;;;8.50;5.28;;;;;;;1.97;83.11;94300.50;5110305;28;20019;-40
2022/03/17 06:50:57;;;;;;;9.13;5.03;;;;;;;1.93;83.44;94311.56;5111898;28;20539;-41
2022/03/17 06:53:22;;;;;;;7.03;4.40;;;;;;;1.91;82.84;94288.75;5114166;28;20044;-40
2022/03/17 06:55:48;;;;;;;19.55;9.80;;;;;;;2.11;82.92;94316.06;5105495;28;20381;-40
2022/03/17 06:58:13;;;;;;;11.43;5.72;;;;;;;2.06;82.50;94325.63;5113765;28;20512;-41
2022/03/17 07:00:39;;;;;;;7.93;5.28;;;;;;;2.04;83.85;94325.34;5113722;28;20035;-41
2022/03/17 07:03:04;;;;;;;10.38;7.00;;;;;;;2.08;83.09;94333.34;5113701;27;20045;-40
2022/03/17 07:05:29;;;;;;;7.18;5.18;;;;;;;2.13;83.45;94338.88;5113713;28;20022;-40
2022/03/17 07:07:55;;;;;;;10.75;5.82;;;;;;;2.07;82.84;94327.16;5113846;28;20036;-41
2022/03/17 07:10:21;;;;;;;8.98;6.60;;;;;;;2.17;82.37;94342.16;5108403;28;20401;-41
2022/03/17 07:12:47;;;;;;;7.72;5.53;;;;;;;2.15;83.06;94349.28;5093121;28;20043;-40
2022/03/17 07:15:13;;;;;;;9.10;6.10;;;;;;;2.22;82.45;94355.13;5093051;28;20035;-40
2022/03/17 07:17:39;;;;;;;16.15;10.55;;;;;;;2.28;82.43;94347.78;5091875;28;20021;-41
2022/03/17 07:20:07;;;;;;;7.10;5.07;;;;;;;2.17;81.58;94338.66;5093292;28;20035;-41
2022/03/17 07:22:33;;;;;;;6.32;4.68;;;;;;;2.12;82.08;94350.25;5093256;28;20024;-41
2022/03/17 07:24:58;;;;;;;6.30;4.30;;;;;;;2.12;82.09;94345.53;5092899;28;20032;-40
2022/03/17 07:27:24;;;;;;;6.22;4.55;;;;;;;2.08;81.78;94349.69;5093086;28;20024;-40
2022/03/17 07:29:50;;;;;;;7.95;5.50;;;;;;;2.10;82.10;94349.97;5093162;28;20024;-40
2022/03/17 07:32:16;;;;;;;7.70;5.55;;;;;;;2.00;82.66;94324.81;5092734;28;20497;-41
2022/03/17 07:34:42;;;;;;;5.40;3.78;;;;;;;2.03;82.56;94347.63;5093041;28;20031;-41
2022/03/17 07:37:08;;;;;;;6.65;5.57;;;;;;;2.13;83.09;94352.50;5092748;28;20028;-41
2022/03/17 07:39:33;;;;;;;7.10;5.22;;;;;;;2.14;82.65;94355.97;5092670;28;20081;-41
2022/03/17 07:41:59;;;;;;;8.82;6.22;;;;;;;2.19;82.58;94363.47;5111650;28;20045;-40
2022/03/17 07:44:24;;;;;;;13.57;7.75;;;;;;;2.17;81.99;94366.66;5112866;28;20492;-41
2022/03/17 07:46:49;;;;;;;9.88;6.47;;;;;;;2.14;82.02;94364.16;5112927;28;20031;-40
2022/03/17 07:49:15;;;;;;;304.23;27.90;;;;;;;2.15;81.13;94360.94;5113073;28;20032;-40
2022/03/17 07:51:42;;;;;;;14.63;8.63;;;;;;;2.11;81.19;94363.13;5112746;28;20120;-40
2022/03/17 07:54:07;;;;;;;11.10;6.57;;;;;;;2.14;81.48;94353.97;5093084;28;20059;-40
2022/03/17 07:56:33;;;;;;;7.22;4.80;;;;;;;2.24;80.68;94360.09;5109236;28;20116;-41
2022/03/17 07:58:59;;;;;;;9.15;6.22;;;;;;;2.37;80.59;94352.34;5113047;27;20028;-40
2022/03/17 08:01:25;;;;;;;12.10;8.25;;;;;;;2.40;80.48;94348.69;5111237;28;20046;-40
2022/03/17 08:03:52;;;;;;;9.30;7.32;;;;;;;2.42;80.38;94340.78;5112894;28;20051;-40
2022/03/17 08:06:18;;;;;;;7.78;6.25;;;;;;;2.60;80.75;94362.34;5111338;28;20038;-40
2022/03/17 08:08:46;;;;;;;7.32;6.05;;;;;;;2.93;80.32;94365.50;5112663;28;20024;-41
2022/03/17 08:11:12;;;;;;;8.98;5.47;;;;;;;3.03;79.05;94361.41;5112657;28;20490;-40
2022/03/17 08:13:38;;;;;;;7.70;5.40;;;;;;;3.16;78.17;94363.06;5112676;28;20028;-40
2022/03/17 08:16:03;;;;;;;9.07;6.60;;;;;;;3.23;78.93;94368.09;5112645;28;20147;-40
2022/03/17 08:18:30;;;;;;;7.88;5.53;;;;;;;3.33;77.62;94364.75;5112290;28;20629;-40
2022/03/17 08:20:56;;;;;;;12.65;8.25;;;;;;;3.31;76.39;94364.47;5111027;28;20042;-40
2022/03/17 08:23:22;;;;;;;9.20;6.90;;;;;;;3.26;76.75;94367.88;5112263;28;20020;-40
2022/03/17 08:25:48;;;;;;;16.38;9.65;;;;;;;3.26;76.95;94370.63;5112526;28;20032;-40
2022/03/17 08:28:14;;;;;;;15.60;9.77;;;;;;;3.30;77.79;94378.56;5112354;28;20055;-40
2022/03/17 08:30:39;;;;;;;16.92;9.82;;;;;;;3.20;76.84;94356.16;5112054;28;20059;-40
2022/03/17 08:33:05;;;;;;;15.07;9.60;;;;;;;3.48;77.35;94381.78;5112035;28;20031;-40
2022/03/17 08:35:30;;;;;;;10.15;6.38;;;;;;;3.65;75.58;94379.22;5112228;28;20042;-40
2022/03/17 08:37:59;;;;;;;8.15;6.18;;;;;;;3.64;76.43;94383.16;5111869;28;20496;-41
2022/03/17 08:40:24;;;;;;;5.93;4.90;;;;;;;3.94;74.79;94378.25;5105779;28;20077;-40
2022/03/17 08:42:50;;;;;;;10.77;7.10;;;;;;;4.27;74.45;94384.75;5091434;28;20060;-40
2022/03/17 08:50:44;;;;;;;11.68;6.70;;;;;;;4.40;74.00;94396.03;5091539;28;20123;-41
2022/03/17 08:53:10;;;;;;;8.85;5.93;;;;;;;4.68;72.02;94390.00;5091256;28;20062;-41
2022/03/17 08:55:37;;;;;;;10.48;7.88;;;;;;;4.80;72.01;94391.56;5100224;28;20059;-41
2022/03/17 08:58:06;;;;;;;8.77;6.78;;;;;;;4.99;71.13;94403.63;5111320;28;20504;-40
2022/03/17 09:00:34;;;;;;;10.68;6.55;;;;;;;5.10;70.41;94406.41;5111372;28;20488;-40
2022/03/17 09:03:03;;;;;;;7.30;6.00;;;;;;;4.91;69.56;94406.06;5111732;28;20028;-41
2022/03/17 09:05:35;;;;;;;7.85;6.28;;;;;;;4.84;70.36;94405.78;5111658;28;20042;-40
2022/03/17 09:08:02;;;;;;;8.98;6.20;;;;;;;4.48;71.20;94402.53;5111567;28;20028;-40
2022/03/17 09:10:27;;;;;;;8.93;5.72;;;;;;;4.45;71.67;94409.00;5105293;28;20115;-40
2022/03/17 09:12:57;;;;;;;6.85;5.07;;;;;;;4.32;71.19;94408.66;5090290;28;20526;-40
2022/03/17 09:15:26;;;;;;;14.27;9.25;;;;;;;4.23;70.82;94413.53;5091080;28;20035;-40
2022/03/17 09:17:52;;;;;;;;;;;;;;;3.90;71.51;94422.16;5091666;28;20024;-40
2022/03/17 09:20:17;;;;;;;9.48;4.88;;;;;;;3.71;72.73;94424.47;5091063;28;20282;-40
2022/03/17 09:22:43;;;;;;;6.88;5.65;;;;;;;3.65;72.11;94425.63;5091032;28;20056;-40
2022/03/17 09:25:10;;;;;;;6.80;5.45;;;;;;;3.41;73.06;94431.31;5089515;28;20031;-40
2022/03/17 09:27:35;;;;;;;5.35;4.32;;;;;;;3.24;73.21;94441.28;5090571;28;20485;-40
2022/03/17 09:30:01;;;;;;;5.40;4.03;;;;;;;3.23;74.04;94437.06;5090890;28;20154;-40
2022/03/17 09:32:26;;;;;;;5.75;3.70;;;;;;;3.05;75.31;94445.50;5090640;28;20032;-40
2022/03/17 09:34:51;;;;;;;5.18;3.75;;;;;;;3.05;75.43;94454.44;5090558;28;20031;-40
2022/03/17 09:37:19;;;;;;;4.30;3.90;;;;;;;2.86;75.55;94449.69;5090468;28;20081;-40
2022/03/17 09:39:47;;;;;;;4.60;3.75;;;;;;;2.76;75.81;94451.81;5090370;28;20393;-40
2022/03/17 09:42:15;;;;;;;4.63;3.53;;;;;;;2.62;76.06;94432.75;5090767;28;20120;-40
2022/03/17 09:44:42;;;;;;;5.32;4.35;;;;;;;2.75;76.77;94453.00;5093793;28;20061;-40
2022/03/17 09:47:09;;;;;;;6.05;4.57;;;;;;;2.78;76.44;94449.34;5110712;28;20483;-40
2022/03/17 09:49:36;;;;;;;14.65;8.05;;;;;;;2.77;76.82;94458.00;5109488;28;20035;-40
2022/03/17 09:52:05;;;;;;;10.90;7.00;;;;;;;2.81;76.50;94456.59;5110723;28;20054;-40
2022/03/17 09:54:35;;;;;;;11.88;6.40;;;;;;;2.82;77.40;94465.50;5110965;28;20076;-40
2022/03/17 09:57:00;;;;;;;12.40;7.15;;;;;;;2.75;76.82;94460.47;5090514;28;20484;-40
2022/03/17 09:59:26;;;;;;;8.52;5.80;;;;;;;2.74;77.49;94467.13;5090561;28;20024;-40
2022/03/17 10:01:51;;;;;;;11.18;6.63;;;;;;;2.76;76.43;94465.44;5090490;28;20028;-41
2022/03/17 10:04:18;;;;;;;12.75;9.18;;;;;;;2.80;76.81;94465.22;5106032;28;20021;-41
2022/03/17 10:06:43;;;;;;;12.88;7.97;;;;;;;2.87;77.37;94460.16;5106160;28;20031;-40
2022/03/17 10:09:09;;;;;;;10.65;7.13;;;;;;;2.74;78.25;94462.44;5090139;28;20801;-41
2022/03/17 10:11:37;;;;;;;8.93;5.47;;;;;;;2.78;77.65;94460.25;5105783;28;20023;-40
2022/03/17 10:14:05;;;;;;;6.90;5.03;;;;;;;2.87;77.42;94468.31;5110508;28;20503;-40
2022/03/17 10:16:30;;;;;;;6.65;5.10;;;;;;;2.86;77.92;94472.25;5110458;28;20027;-40
2022/03/17 10:19:03;;;;;;;10.00;5.53;;;;;;;2.90;77.84;94474.81;5110663;28;20032;-41
2022/03/17 10:21:29;;;;;;;7.47;5.50;;;;;;;2.78;77.51;94482.06;5110703;28;20032;-40
2022/03/17 10:24:02;;;;;;;8.60;6.15;;;;;;;2.61;77.90;94485.75;5110607;28;20053;-40
2022/03/17 10:26:47;;;;;;;9.95;6.97;;;;;;;2.45;78.90;94486.25;5114786;28;20030;-40
2022/03/17 10:29:15;;;;;;;10.07;7.35;;;;;;;2.52;79.28;94486.63;5114366;28;20564;-40
2022/03/17 10:31:52;;;;;;;9.07;6.13;;;;;;;2.47;79.38;94484.53;5114341;28;20045;-41
2022/03/17 10:34:19;;;;;;;7.18;4.55;;;;;;;2.47;79.69;94492.72;5114702;28;20463;-41
2022/03/17 10:36:45;;;;;;;8.70;6.43;;;;;;;2.50;79.71;94488.31;5114164;28;20059;-41
2022/03/17 10:39:11;;;;;;;9.75;5.72;;;;;;;2.50;79.75;94489.06;5114185;28;20081;-41
2022/03/17 10:41:45;;;;;;;8.95;6.07;;;;;;;2.58;79.53;94486.72;5104498;28;20027;-41
2022/03/17 10:44:16;;;;;;;8.38;5.97;;;;;;;2.66;79.14;94482.38;5093780;28;20020;-41
2022/03/17 10:46:56;;;;;;;10.35;7.63;;;;;;;2.77;78.11;94486.00;5093726;28;20520;-40
2022/03/17 10:49:22;;;;;;;11.65;7.20;;;;;;;2.68;78.55;94494.31;5093840;28;20020;-40
2022/03/17 10:51:53;;;;;;;10.45;7.75;;;;;;;2.72;79.30;94492.16;5093578;28;20425;-41
2022/03/17 10:54:19;;;;;;;13.43;7.75;;;;;;;2.71;80.44;94498.81;5092388;28;20041;-41
2022/03/17 10:56:57;;;;;;;12.15;8.15;;;;;;;2.73;79.45;94496.38;5111888;28;20475;-40
2022/03/17 10:59:22;;;;;;;11.38;8.65;;;;;;;2.61;79.69;94500.16;5113956;28;20023;-40
2022/03/17 11:01:48;;;;;;;10.35;7.15;;;;;;;2.63;79.22;94496.94;5113716;28;20507;-40
2022/03/17 11:04:14;;;;;;;9.88;6.68;;;;;;;2.55;79.77;94504.00;5113756;28;20023;-40
2022/03/17 11:06:40;;;;;;;10.52;6.47;;;;;;;2.40;80.35;94501.31;5113977;28;20038;-40
2022/03/17 11:09:08;;;;;;;13.68;8.95;;;;;;;2.46;80.76;94502.13;5113509;28;20105;-40
2022/03/17 11:11:39;;;;;;;13.48;8.75;;;;;;;2.39;80.27;94497.06;5113535;28;20034;-40
2022/03/17 11:14:06;;;;;;;14.60;10.70;;;;;;;2.28;80.61;94496.88;5113844;28;20047;-40
2022/03/17 11:16:41;;;;;;;17.63;10.73;;;;;;;2.40;81.21;94506.00;5113812;28;20039;-40
2022/03/17 11:19:09;;;;;;;13.77;9.60;;;;;;;2.46;80.25;94504.88;5112513;28;20400;-40
2022/03/17 11:21:35;;;;;;;16.50;9.85;;;;;;;2.50;80.19;94504.66;5112554;28;20089;-40
2022/03/17 11:24:05;;;;;;;20.05;13.50;;;;;;;2.50;80.40;94508.16;5113377;28;20587;-40
2022/03/17 11:26:38;;;;;;;18.90;11.73;;;;;;;2.58;80.75;94511.25;5113670;28;20019;-40
2022/03/17 11:29:05;;;;;;;21.65;13.23;;;;;;;2.64;80.84;94510.09;5112035;28;20030;-40
2022/03/17 11:31:56;;;;;;;15.95;8.80;;;;;;;2.52;79.89;94511.16;5113198;28;20019;-40
2022/03/17 11:34:47;;;;;;;10.15;6.80;;;;;;;2.47;79.78;94511.06;5113216;28;20110;-40
2022/03/17 11:37:13;;;;;;;11.23;6.95;;;;;;;2.35;78.57;94504.69;5108929;28;20036;-40
2022/03/17 11:39:54;;;;;;;14.40;9.23;;;;;;;2.28;79.98;94494.91;5092636;28;20028;-40
2022/03/17 11:42:52;;;;;;;14.25;7.15;;;;;;;2.28;79.73;94500.34;5092654;28;20034;-40
2022/03/17 11:45:17;;;;;;;12.03;7.17;;;;;;;2.17;79.79;94493.94;5092649;28;20024;-40
2022/03/17 11:47:45;;;;;;;15.55;9.00;;;;;;;2.30;80.35;94494.41;5092745;28;20093;-40